Coraopolis, PA

6:27 AM EDT on August 31, 2014 (GMT -0400)
Butler County-Scholter | Change Station
CLOSE
Current Station
Airport
Location: Butler,
Elevation: 1247 ft
Nearby Weather Stations

Elev 1247 ft 40.78 °N, 79.95 °W | Updated 12 minutes ago

Overcast
Overcast
68 °F
Feels Like 68 °F
N
0
Wind Variable Wind from North

Today
High -- | Low -- °F
--% Chance of Precip.
Yesterday
High -- | Low -- °F
Precip. -- in
6:47 AM 7:54 PM
Waxing Crescent, 29% visible
Pressure 30.09 in
Visibility 4.0 miles
Clouds Mostly Cloudy 2700 ft
Mostly Cloudy 3700 ft
Overcast 4400 ft
Dew Point 66 °F
Humidity 94%
Rainfall 0.69 in
Snow Depth Not available.
UV 0 out of 12
Pollen 10.20 out of 12
Ozone Good
PM2.5 Moderate
Flu Activity Not available.
METAR KBTP 311015Z AUTO 00000KT 4SM BKN027 BKN037 OVC044 20/19 A3009 RMK AO1

More Conditions Fewer Conditions

Pressure 30.09 in
Visibility 4.0 miles
Clouds Mostly Cloudy 2700 ft
Mostly Cloudy 3700 ft
Overcast 4400 ft
Dew Point 66 °F
Humidity 94%
Rainfall 0.69 in
Snow Depth Not available.
UV 0 out of 12
Pollen 10.20 out of 12
Ozone Good
PM2.5 Moderate
Flu Activity Not available.
METAR KBTP 311015Z AUTO 00000KT 4SM BKN027 BKN037 OVC044 20/19 A3009 RMK AO1

More Conditions Fewer Conditions

10-Day Weather Forecast

Almanac

Astronomy

Aug. 31, 2014 Rise Set
Actual Time 6:47 AM EDT 7:54 PM EDT
Civil Twilight 6:18 AM EDT 8:22 PM EDT
Nautical Twilight 5:45 AM EDT 8:55 PM EDT
Astronomical Twilight 5:10 AM EDT 9:30 PM EDT
Moon 12:33 PM EDT 11:06 PM EDT
Length of Visible Light 14h 03m
Length of Day
13h 07m
Tomorrow will be 2m 34s shorter.
Waxing Crescent, 29% of the Moon is Illuminated
Today
Waxing Crescent
Sep 2
First Quarter
Sep 8
Full
Sep 15
Last Quarter
Sep 24
New

Today's Extremes

State Highs State Lows

Community

WunderPhotos

Upload Photos

1,748,834 photos uploaded!

Nearby

Air Quality

  Air Quality AQ Index Pollutant
Yesterday Moderate
PM2.5
Yesterday Moderate
OZONE
Current Moderate
PM2.5
Current Good
OZONE
Sunday Moderate
PM2.5
Sunday Good
OZONE
Monday Moderate
PM2.5
Monday Good
OZONE
Tuesday Moderate
PM2.5
Tuesday Good
OZONE
Wednesday Good
PM2.5
Wednesday Good
OZONE

Snow Depth

Station Depth Elevation
No new snow has been reported.

Earthquake Activity

City Distance Mag. Time & Date
No recent earthquake activity has been reported nearby.
Minimum magnitude displayed is 2.5.

Coastal Water Temperatures

Place Temperature
No Stations Reporting

Nearby Weather Stations